sensor_id;sensor_type;location;lat;lon;timestamp;P1;durP1;ratioP1;P2;durP2;ratioP2
49416;SDS011;35290;39.550;8.786;2023-04-24T00:01:16;13.40;;;4.40;;
49416;SDS011;35290;39.550;8.786;2023-04-24T00:03:42;17.58;;;4.30;;
49416;SDS011;35290;39.550;8.786;2023-04-24T00:06:07;16.63;;;4.10;;
49416;SDS011;35290;39.550;8.786;2023-04-24T00:08:33;15.63;;;4.65;;
49416;SDS011;35290;39.550;8.786;2023-04-24T00:10:58;13.90;;;4.20;;
49416;SDS011;35290;39.550;8.786;2023-04-24T00:13:24;12.05;;;3.88;;
49416;SDS011;35290;39.550;8.786;2023-04-24T00:15:49;10.13;;;3.58;;
49416;SDS011;35290;39.550;8.786;2023-04-24T00:18:14;11.80;;;3.90;;
49416;SDS011;35290;39.550;8.786;2023-04-24T00:20:40;14.02;;;3.78;;
49416;SDS011;35290;39.550;8.786;2023-04-24T00:23:05;14.85;;;3.78;;
49416;SDS011;35290;39.550;8.786;2023-04-24T00:25:30;12.32;;;4.05;;
49416;SDS011;35290;39.550;8.786;2023-04-24T00:27:56;14.40;;;4.50;;
49416;SDS011;35290;39.550;8.786;2023-04-24T00:30:21;11.88;;;4.15;;
49416;SDS011;35290;39.550;8.786;2023-04-24T00:32:46;16.73;;;4.70;;
49416;SDS011;35290;39.550;8.786;2023-04-24T00:35:12;12.75;;;4.20;;
49416;SDS011;35290;39.550;8.786;2023-04-24T00:37:37;15.05;;;3.95;;
49416;SDS011;35290;39.550;8.786;2023-04-24T00:40:03;16.20;;;4.35;;
49416;SDS011;35290;39.550;8.786;2023-04-24T00:42:28;10.57;;;3.80;;
49416;SDS011;35290;39.550;8.786;2023-04-24T00:44:53;13.55;;;4.22;;
49416;SDS011;35290;39.550;8.786;2023-04-24T00:47:19;10.48;;;4.15;;
49416;SDS011;35290;39.550;8.786;2023-04-24T00:49:44;14.43;;;4.20;;
49416;SDS011;35290;39.550;8.786;2023-04-24T00:52:10;13.80;;;4.10;;
49416;SDS011;35290;39.550;8.786;2023-04-24T00:54:35;14.30;;;4.25;;
49416;SDS011;35290;39.550;8.786;2023-04-24T00:57:02;15.77;;;4.90;;
49416;SDS011;35290;39.550;8.786;2023-04-24T00:59:28;13.93;;;4.32;;
49416;SDS011;35290;39.550;8.786;2023-04-24T01:01:53;11.45;;;4.60;;
49416;SDS011;35290;39.550;8.786;2023-04-24T01:04:18;16.33;;;4.82;;
49416;SDS011;35290;39.550;8.786;2023-04-24T01:06:44;12.27;;;4.30;;
49416;SDS011;35290;39.550;8.786;2023-04-24T01:09:10;12.80;;;4.35;;
49416;SDS011;35290;39.550;8.786;2023-04-24T01:11:36;12.60;;;4.57;;
49416;SDS011;35290;39.550;8.786;2023-04-24T01:14:01;15.85;;;5.05;;
49416;SDS011;35290;39.550;8.786;2023-04-24T01:16:27;10.80;;;3.85;;
49416;SDS011;35290;39.550;8.786;2023-04-24T01:18:52;15.23;;;4.22;;
49416;SDS011;35290;39.550;8.786;2023-04-24T01:21:17;15.15;;;4.15;;
49416;SDS011;35290;39.550;8.786;2023-04-24T01:23:44;13.13;;;4.65;;
49416;SDS011;35290;39.550;8.786;2023-04-24T01:26:09;14.75;;;3.95;;
49416;SDS011;35290;39.550;8.786;2023-04-24T01:28:35;11.93;;;4.32;;
49416;SDS011;35290;39.550;8.786;2023-04-24T01:31:00;13.52;;;4.25;;
49416;SDS011;35290;39.550;8.786;2023-04-24T01:33:26;11.50;;;4.30;;
49416;SDS011;35290;39.550;8.786;2023-04-24T01:35:51;13.15;;;3.95;;
49416;SDS011;35290;39.550;8.786;2023-04-24T01:38:17;12.18;;;3.72;;
49416;SDS011;35290;39.550;8.786;2023-04-24T01:40:42;10.48;;;3.70;;
49416;SDS011;35290;39.550;8.786;2023-04-24T01:43:08;11.85;;;3.88;;
49416;SDS011;35290;39.550;8.786;2023-04-24T01:45:33;11.60;;;3.92;;
49416;SDS011;35290;39.550;8.786;2023-04-24T01:47:58;10.07;;;3.60;;
49416;SDS011;35290;39.550;8.786;2023-04-24T01:50:25;14.38;;;3.60;;
49416;SDS011;35290;39.550;8.786;2023-04-24T01:52:50;14.73;;;4.00;;
49416;SDS011;35290;39.550;8.786;2023-04-24T01:55:15;13.88;;;3.85;;
49416;SDS011;35290;39.550;8.786;2023-04-24T01:57:41;11.85;;;3.90;;
49416;SDS011;35290;39.550;8.786;2023-04-24T02:00:06;10.32;;;4.30;;
49416;SDS011;35290;39.550;8.786;2023-04-24T02:02:32;16.20;;;3.95;;
49416;SDS011;35290;39.550;8.786;2023-04-24T02:04:57;14.43;;;4.20;;
49416;SDS011;35290;39.550;8.786;2023-04-24T02:07:23;10.68;;;4.32;;
49416;SDS011;35290;39.550;8.786;2023-04-24T02:09:48;13.38;;;3.75;;
49416;SDS011;35290;39.550;8.786;2023-04-24T02:12:14;14.95;;;4.10;;
49416;SDS011;35290;39.550;8.786;2023-04-24T02:14:39;16.17;;;4.65;;
49416;SDS011;35290;39.550;8.786;2023-04-24T02:17:05;14.32;;;4.20;;
49416;SDS011;35290;39.550;8.786;2023-04-24T02:19:31;13.73;;;4.43;;
49416;SDS011;35290;39.550;8.786;2023-04-24T02:21:57;14.55;;;3.97;;
49416;SDS011;35290;39.550;8.786;2023-04-24T02:24:22;11.23;;;4.10;;
49416;SDS011;35290;39.550;8.786;2023-04-24T02:26:47;13.43;;;3.90;;
49416;SDS011;35290;39.550;8.786;2023-04-24T02:29:13;14.38;;;4.30;;
49416;SDS011;35290;39.550;8.786;2023-04-24T02:31:38;15.40;;;4.03;;
49416;SDS011;35290;39.550;8.786;2023-04-24T02:34:03;12.57;;;4.28;;
49416;SDS011;35290;39.550;8.786;2023-04-24T02:36:29;11.77;;;4.82;;
49416;SDS011;35290;39.550;8.786;2023-04-24T02:38:55;10.93;;;3.35;;
49416;SDS011;35290;39.550;8.786;2023-04-24T02:41:20;12.52;;;4.40;;
49416;SDS011;35290;39.550;8.786;2023-04-24T02:43:46;11.80;;;4.22;;
49416;SDS011;35290;39.550;8.786;2023-04-24T02:46:11;12.85;;;4.13;;
49416;SDS011;35290;39.550;8.786;2023-04-24T02:48:36;12.50;;;4.07;;
49416;SDS011;35290;39.550;8.786;2023-04-24T02:51:01;12.30;;;4.07;;
49416;SDS011;35290;39.550;8.786;2023-04-24T02:53:27;11.30;;;3.67;;
49416;SDS011;35290;39.550;8.786;2023-04-24T02:55:52;13.88;;;4.00;;
49416;SDS011;35290;39.550;8.786;2023-04-24T02:58:17;14.23;;;4.20;;
49416;SDS011;35290;39.550;8.786;2023-04-24T03:00:45;12.63;;;3.90;;
49416;SDS011;35290;39.550;8.786;2023-04-24T03:03:10;12.48;;;3.60;;
49416;SDS011;35290;39.550;8.786;2023-04-24T03:05:35;12.82;;;3.67;;
49416;SDS011;35290;39.550;8.786;2023-04-24T03:08:01;15.85;;;4.32;;
49416;SDS011;35290;39.550;8.786;2023-04-24T03:10:26;14.73;;;4.13;;
49416;SDS011;35290;39.550;8.786;2023-04-24T03:12:51;13.05;;;4.18;;
49416;SDS011;35290;39.550;8.786;2023-04-24T03:15:17;11.38;;;3.95;;
49416;SDS011;35290;39.550;8.786;2023-04-24T03:17:42;13.82;;;4.13;;
49416;SDS011;35290;39.550;8.786;2023-04-24T03:20:07;12.20;;;3.80;;
49416;SDS011;35290;39.550;8.786;2023-04-24T03:22:36;11.38;;;3.70;;
49416;SDS011;35290;39.550;8.786;2023-04-24T03:25:01;12.68;;;3.22;;
49416;SDS011;35290;39.550;8.786;2023-04-24T03:27:27;16.23;;;3.88;;
49416;SDS011;35290;39.550;8.786;2023-04-24T03:29:52;14.23;;;3.78;;
49416;SDS011;35290;39.550;8.786;2023-04-24T03:32:20;13.43;;;3.58;;
49416;SDS011;35290;39.550;8.786;2023-04-24T03:34:45;11.57;;;3.30;;
49416;SDS011;35290;39.550;8.786;2023-04-24T03:37:11;9.40;;;3.88;;
49416;SDS011;35290;39.550;8.786;2023-04-24T03:39:36;11.70;;;3.80;;
49416;SDS011;35290;39.550;8.786;2023-04-24T03:42:02;12.95;;;3.65;;
49416;SDS011;35290;39.550;8.786;2023-04-24T03:44:27;14.48;;;3.67;;
49416;SDS011;35290;39.550;8.786;2023-04-24T03:46:52;12.18;;;3.25;;
49416;SDS011;35290;39.550;8.786;2023-04-24T03:49:18;17.13;;;3.22;;
49416;SDS011;35290;39.550;8.786;2023-04-24T03:51:43;13.05;;;3.40;;
49416;SDS011;35290;39.550;8.786;2023-04-24T03:54:08;11.75;;;3.60;;
49416;SDS011;35290;39.550;8.786;2023-04-24T03:56:34;18.90;;;4.55;;
49416;SDS011;35290;39.550;8.786;2023-04-24T03:58:59;14.18;;;3.33;;
49416;SDS011;35290;39.550;8.786;2023-04-24T04:01:25;9.40;;;3.28;;
49416;SDS011;35290;39.550;8.786;2023-04-24T04:03:50;9.38;;;3.42;;
49416;SDS011;35290;39.550;8.786;2023-04-24T04:06:16;9.15;;;3.28;;
49416;SDS011;35290;39.550;8.786;2023-04-24T04:08:41;9.35;;;3.20;;
49416;SDS011;35290;39.550;8.786;2023-04-24T04:11:06;13.20;;;3.63;;
49416;SDS011;35290;39.550;8.786;2023-04-24T04:13:32;17.85;;;3.72;;
49416;SDS011;35290;39.550;8.786;2023-04-24T04:15:57;11.57;;;3.45;;
49416;SDS011;35290;39.550;8.786;2023-04-24T04:18:22;13.18;;;3.40;;
49416;SDS011;35290;39.550;8.786;2023-04-24T04:20:48;8.00;;;3.30;;
49416;SDS011;35290;39.550;8.786;2023-04-24T04:23:13;11.85;;;3.42;;
49416;SDS011;35290;39.550;8.786;2023-04-24T04:25:38;12.70;;;3.30;;
49416;SDS011;35290;39.550;8.786;2023-04-24T04:28:04;11.80;;;3.78;;
49416;SDS011;35290;39.550;8.786;2023-04-24T04:30:29;10.93;;;3.00;;
49416;SDS011;35290;39.550;8.786;2023-04-24T04:32:57;12.45;;;3.40;;
49416;SDS011;35290;39.550;8.786;2023-04-24T04:35:22;13.18;;;3.65;;
49416;SDS011;35290;39.550;8.786;2023-04-24T04:37:47;9.95;;;3.42;;
49416;SDS011;35290;39.550;8.786;2023-04-24T04:40:13;12.93;;;3.50;;
49416;SDS011;35290;39.550;8.786;2023-04-24T04:42:38;10.68;;;3.40;;
49416;SDS011;35290;39.550;8.786;2023-04-24T04:45:06;13.23;;;3.67;;
49416;SDS011;35290;39.550;8.786;2023-04-24T04:47:33;9.80;;;3.30;;
49416;SDS011;35290;39.550;8.786;2023-04-24T04:49:59;15.00;;;3.65;;
49416;SDS011;35290;39.550;8.786;2023-04-24T04:52:25;13.23;;;4.13;;
49416;SDS011;35290;39.550;8.786;2023-04-24T04:54:51;11.77;;;3.50;;
49416;SDS011;35290;39.550;8.786;2023-04-24T04:57:17;12.10;;;3.80;;
49416;SDS011;35290;39.550;8.786;2023-04-24T04:59:42;13.70;;;3.78;;
49416;SDS011;35290;39.550;8.786;2023-04-24T05:02:08;12.50;;;3.75;;
49416;SDS011;35290;39.550;8.786;2023-04-24T05:04:33;14.80;;;3.80;;
49416;SDS011;35290;39.550;8.786;2023-04-24T05:06:58;11.15;;;3.33;;
49416;SDS011;35290;39.550;8.786;2023-04-24T05:09:24;9.48;;;3.00;;
49416;SDS011;35290;39.550;8.786;2023-04-24T05:11:52;13.57;;;3.65;;
49416;SDS011;35290;39.550;8.786;2023-04-24T05:14:23;10.10;;;3.20;;
49416;SDS011;35290;39.550;8.786;2023-04-24T05:16:54;13.88;;;3.40;;
49416;SDS011;35290;39.550;8.786;2023-04-24T05:19:23;13.00;;;3.53;;
49416;SDS011;35290;39.550;8.786;2023-04-24T05:21:48;14.32;;;3.50;;
49416;SDS011;35290;39.550;8.786;2023-04-24T05:24:13;13.68;;;3.58;;
49416;SDS011;35290;39.550;8.786;2023-04-24T05:26:39;15.07;;;3.75;;
49416;SDS011;35290;39.550;8.786;2023-04-24T05:29:04;11.48;;;3.88;;
49416;SDS011;35290;39.550;8.786;2023-04-24T05:31:30;12.43;;;3.70;;
49416;SDS011;35290;39.550;8.786;2023-04-24T05:33:55;14.25;;;3.90;;
49416;SDS011;35290;39.550;8.786;2023-04-24T05:36:21;17.40;;;4.35;;
49416;SDS011;35290;39.550;8.786;2023-04-24T05:38:46;15.52;;;3.45;;
49416;SDS011;35290;39.550;8.786;2023-04-24T05:41:11;12.73;;;4.18;;
49416;SDS011;35290;39.550;8.786;2023-04-24T05:43:37;11.77;;;3.47;;
49416;SDS011;35290;39.550;8.786;2023-04-24T05:46:02;16.13;;;3.60;;
49416;SDS011;35290;39.550;8.786;2023-04-24T05:48:27;14.73;;;3.20;;
49416;SDS011;35290;39.550;8.786;2023-04-24T05:50:53;14.25;;;3.00;;
49416;SDS011;35290;39.550;8.786;2023-04-24T05:53:18;10.50;;;3.25;;
49416;SDS011;35290;39.550;8.786;2023-04-24T05:55:56;14.23;;;4.13;;
49416;SDS011;35290;39.550;8.786;2023-04-24T05:58:23;11.98;;;3.60;;
49416;SDS011;35290;39.550;8.786;2023-04-24T06:00:49;10.68;;;3.65;;
49416;SDS011;35290;39.550;8.786;2023-04-24T06:03:15;17.08;;;3.92;;
49416;SDS011;35290;39.550;8.786;2023-04-24T06:05:40;11.35;;;4.18;;
49416;SDS011;35290;39.550;8.786;2023-04-24T06:08:06;15.43;;;5.10;;
49416;SDS011;35290;39.550;8.786;2023-04-24T06:10:31;15.23;;;5.10;;
49416;SDS011;35290;39.550;8.786;2023-04-24T06:12:57;17.00;;;4.72;;
49416;SDS011;35290;39.550;8.786;2023-04-24T06:15:26;14.75;;;4.95;;
49416;SDS011;35290;39.550;8.786;2023-04-24T06:17:52;19.98;;;4.30;;
49416;SDS011;35290;39.550;8.786;2023-04-24T06:20:17;12.07;;;4.03;;
49416;SDS011;35290;39.550;8.786;2023-04-24T06:22:42;13.50;;;4.35;;
49416;SDS011;35290;39.550;8.786;2023-04-24T06:25:08;10.55;;;3.90;;
49416;SDS011;35290;39.550;8.786;2023-04-24T06:27:34;18.65;;;4.72;;
49416;SDS011;35290;39.550;8.786;2023-04-24T06:30:00;12.48;;;4.45;;
49416;SDS011;35290;39.550;8.786;2023-04-24T06:32:26;13.93;;;4.28;;
49416;SDS011;35290;39.550;8.786;2023-04-24T06:34:52;15.23;;;4.40;;
49416;SDS011;35290;39.550;8.786;2023-04-24T06:37:18;20.10;;;5.13;;
49416;SDS011;35290;39.550;8.786;2023-04-24T06:39:44;17.98;;;5.10;;
49416;SDS011;35290;39.550;8.786;2023-04-24T06:42:10;14.70;;;4.28;;
49416;SDS011;35290;39.550;8.786;2023-04-24T06:44:35;19.67;;;4.20;;
49416;SDS011;35290;39.550;8.786;2023-04-24T06:47:06;9.85;;;3.78;;
49416;SDS011;35290;39.550;8.786;2023-04-24T06:49:31;15.55;;;4.13;;
49416;SDS011;35290;39.550;8.786;2023-04-24T06:51:56;13.70;;;3.75;;
49416;SDS011;35290;39.550;8.786;2023-04-24T06:54:22;12.88;;;4.47;;
49416;SDS011;35290;39.550;8.786;2023-04-24T06:56:47;12.75;;;4.00;;
49416;SDS011;35290;39.550;8.786;2023-04-24T06:59:14;16.13;;;4.70;;
49416;SDS011;35290;39.550;8.786;2023-04-24T07:01:39;18.13;;;5.13;;
49416;SDS011;35290;39.550;8.786;2023-04-24T07:04:04;16.75;;;4.32;;
49416;SDS011;35290;39.550;8.786;2023-04-24T07:06:30;18.00;;;4.97;;
49416;SDS011;35290;39.550;8.786;2023-04-24T07:08:55;19.27;;;5.55;;
49416;SDS011;35290;39.550;8.786;2023-04-24T07:11:21;22.45;;;5.20;;
49416;SDS011;35290;39.550;8.786;2023-04-24T07:13:47;15.32;;;5.00;;
49416;SDS011;35290;39.550;8.786;2023-04-24T07:16:12;16.50;;;5.10;;
49416;SDS011;35290;39.550;8.786;2023-04-24T07:18:40;19.05;;;4.95;;
49416;SDS011;35290;39.550;8.786;2023-04-24T07:21:06;19.08;;;4.78;;
49416;SDS011;35290;39.550;8.786;2023-04-24T07:23:32;19.20;;;4.65;;
49416;SDS011;35290;39.550;8.786;2023-04-24T07:25:57;18.92;;;5.05;;
49416;SDS011;35290;39.550;8.786;2023-04-24T07:28:23;19.13;;;4.70;;
49416;SDS011;35290;39.550;8.786;2023-04-24T07:30:49;16.70;;;3.92;;
49416;SDS011;35290;39.550;8.786;2023-04-24T07:33:19;12.68;;;4.25;;
49416;SDS011;35290;39.550;8.786;2023-04-24T07:35:44;17.15;;;3.95;;
49416;SDS011;35290;39.550;8.786;2023-04-24T07:38:13;12.18;;;3.80;;
49416;SDS011;35290;39.550;8.786;2023-04-24T07:40:38;14.45;;;3.85;;
49416;SDS011;35290;39.550;8.786;2023-04-24T07:43:03;11.65;;;3.70;;
49416;SDS011;35290;39.550;8.786;2023-04-24T07:45:29;10.25;;;3.25;;
49416;SDS011;35290;39.550;8.786;2023-04-24T07:47:56;15.70;;;4.47;;
49416;SDS011;35290;39.550;8.786;2023-04-24T07:50:21;13.15;;;4.15;;
49416;SDS011;35290;39.550;8.786;2023-04-24T07:52:47;14.68;;;3.95;;
49416;SDS011;35290;39.550;8.786;2023-04-24T07:55:12;13.55;;;3.55;;
49416;SDS011;35290;39.550;8.786;2023-04-24T07:57:40;10.68;;;2.80;;
49416;SDS011;35290;39.550;8.786;2023-04-24T08:00:06;15.18;;;3.00;;
49416;SDS011;35290;39.550;8.786;2023-04-24T08:02:34;12.77;;;3.20;;
49416;SDS011;35290;39.550;8.786;2023-04-24T08:05:00;10.90;;;3.10;;
49416;SDS011;35290;39.550;8.786;2023-04-24T08:07:25;13.93;;;4.75;;
49416;SDS011;35290;39.550;8.786;2023-04-24T08:09:51;24.33;;;10.60;;
49416;SDS011;35290;39.550;8.786;2023-04-24T08:12:16;10.85;;;3.92;;
49416;SDS011;35290;39.550;8.786;2023-04-24T08:14:44;13.27;;;2.90;;
49416;SDS011;35290;39.550;8.786;2023-04-24T08:17:09;9.95;;;2.63;;
49416;SDS011;35290;39.550;8.786;2023-04-24T08:19:35;9.75;;;3.00;;
49416;SDS011;35290;39.550;8.786;2023-04-24T08:22:00;12.18;;;3.42;;
49416;SDS011;35290;39.550;8.786;2023-04-24T08:24:26;11.93;;;3.25;;
49416;SDS011;35290;39.550;8.786;2023-04-24T08:26:51;11.15;;;3.38;;
49416;SDS011;35290;39.550;8.786;2023-04-24T08:29:19;11.18;;;3.60;;
49416;SDS011;35290;39.550;8.786;2023-04-24T08:31:44;8.30;;;2.78;;
49416;SDS011;35290;39.550;8.786;2023-04-24T08:34:09;16.42;;;4.18;;
49416;SDS011;35290;39.550;8.786;2023-04-24T08:36:35;9.18;;;3.05;;
49416;SDS011;35290;39.550;8.786;2023-04-24T08:39:01;8.45;;;2.40;;
49416;SDS011;35290;39.550;8.786;2023-04-24T08:41:27;9.65;;;2.47;;
49416;SDS011;35290;39.550;8.786;2023-04-24T08:43:52;6.93;;;2.63;;
49416;SDS011;35290;39.550;8.786;2023-04-24T08:46:18;10.93;;;2.70;;
49416;SDS011;35290;39.550;8.786;2023-04-24T08:48:43;9.68;;;2.92;;
49416;SDS011;35290;39.550;8.786;2023-04-24T08:51:09;9.50;;;3.42;;
49416;SDS011;35290;39.550;8.786;2023-04-24T08:53:35;8.80;;;2.50;;
49416;SDS011;35290;39.550;8.786;2023-04-24T08:56:01;9.35;;;2.63;;
49416;SDS011;35290;39.550;8.786;2023-04-24T08:58:29;7.97;;;2.33;;
49416;SDS011;35290;39.550;8.786;2023-04-24T09:01:02;7.18;;;2.72;;
49416;SDS011;35290;39.550;8.786;2023-04-24T09:03:28;4.65;;;2.13;;
49416;SDS011;35290;39.550;8.786;2023-04-24T09:05:53;4.75;;;2.00;;
49416;SDS011;35290;39.550;8.786;2023-04-24T09:08:27;6.07;;;2.00;;
49416;SDS011;35290;39.550;8.786;2023-04-24T09:10:53;8.30;;;2.00;;
49416;SDS011;35290;39.550;8.786;2023-04-24T09:13:21;6.45;;;1.60;;
49416;SDS011;35290;39.550;8.786;2023-04-24T09:15:47;3.15;;;1.50;;
49416;SDS011;35290;39.550;8.786;2023-04-24T09:18:12;5.70;;;1.75;;
49416;SDS011;35290;39.550;8.786;2023-04-24T09:23:21;3.78;;;1.58;;
49416;SDS011;35290;39.550;8.786;2023-04-24T09:25:48;5.20;;;1.75;;
49416;SDS011;35290;39.550;8.786;2023-04-24T09:28:19;6.65;;;1.80;;
49416;SDS011;35290;39.550;8.786;2023-04-24T09:30:44;4.72;;;1.60;;
49416;SDS011;35290;39.550;8.786;2023-04-24T09:33:15;10.38;;;1.90;;
49416;SDS011;35290;39.550;8.786;2023-04-24T09:35:50;5.40;;;1.55;;
49416;SDS011;35290;39.550;8.786;2023-04-24T09:38:16;6.22;;;1.80;;
49416;SDS011;35290;39.550;8.786;2023-04-24T09:40:47;6.28;;;1.60;;
49416;SDS011;35290;39.550;8.786;2023-04-24T09:43:14;6.88;;;2.00;;
49416;SDS011;35290;39.550;8.786;2023-04-24T09:45:40;7.90;;;1.92;;
49416;SDS011;35290;39.550;8.786;2023-04-24T09:48:08;6.07;;;1.88;;
49416;SDS011;35290;39.550;8.786;2023-04-24T09:50:34;3.47;;;1.35;;
49416;SDS011;35290;39.550;8.786;2023-04-24T09:53:03;5.82;;;1.50;;
49416;SDS011;35290;39.550;8.786;2023-04-24T09:55:29;7.70;;;1.80;;
49416;SDS011;35290;39.550;8.786;2023-04-24T09:57:55;5.07;;;1.60;;
49416;SDS011;35290;39.550;8.786;2023-04-24T10:00:38;4.22;;;1.42;;
49416;SDS011;35290;39.550;8.786;2023-04-24T10:03:05;8.90;;;1.73;;
49416;SDS011;35290;39.550;8.786;2023-04-24T10:05:34;9.73;;;1.83;;
49416;SDS011;35290;39.550;8.786;2023-04-24T10:08:10;4.53;;;1.52;;
49416;SDS011;35290;39.550;8.786;2023-04-24T10:10:39;5.05;;;1.40;;
49416;SDS011;35290;39.550;8.786;2023-04-24T10:13:05;4.15;;;1.42;;
49416;SDS011;35290;39.550;8.786;2023-04-24T10:15:38;4.00;;;1.48;;
49416;SDS011;35290;39.550;8.786;2023-04-24T10:18:04;3.30;;;1.25;;
49416;SDS011;35290;39.550;8.786;2023-04-24T10:20:31;6.35;;;1.60;;
49416;SDS011;35290;39.550;8.786;2023-04-24T10:23:05;5.78;;;1.55;;
49416;SDS011;35290;39.550;8.786;2023-04-24T10:25:32;3.22;;;1.10;;
49416;SDS011;35290;39.550;8.786;2023-04-24T10:27:58;3.47;;;1.30;;
49416;SDS011;35290;39.550;8.786;2023-04-24T10:30:25;5.85;;;2.33;;
49416;SDS011;35290;39.550;8.786;2023-04-24T10:36:09;3.58;;;1.40;;
49416;SDS011;35290;39.550;8.786;2023-04-24T10:38:35;5.35;;;1.98;;
49416;SDS011;35290;39.550;8.786;2023-04-24T10:41:07;5.22;;;1.52;;
49416;SDS011;35290;39.550;8.786;2023-04-24T10:43:34;7.22;;;1.65;;
49416;SDS011;35290;39.550;8.786;2023-04-24T10:46:00;8.85;;;3.30;;
49416;SDS011;35290;39.550;8.786;2023-04-24T10:48:29;9.60;;;4.05;;
49416;SDS011;35290;39.550;8.786;2023-04-24T10:50:54;6.18;;;2.38;;
49416;SDS011;35290;39.550;8.786;2023-04-24T10:53:22;8.63;;;2.28;;
49416;SDS011;35290;39.550;8.786;2023-04-24T10:55:57;5.65;;;3.30;;
49416;SDS011;35290;39.550;8.786;2023-04-24T10:58:23;8.18;;;3.88;;
49416;SDS011;35290;39.550;8.786;2023-04-24T11:04:25;9.48;;;3.85;;
49416;SDS011;35290;39.550;8.786;2023-04-24T11:17:57;4.90;;;1.95;;
49416;SDS011;35290;39.550;8.786;2023-04-24T11:26:31;4.63;;;1.40;;
49416;SDS011;35290;39.550;8.786;2023-04-24T11:29:08;8.60;;;1.77;;
49416;SDS011;35290;39.550;8.786;2023-04-24T11:31:34;3.35;;;1.63;;
49416;SDS011;35290;39.550;8.786;2023-04-24T11:34:14;5.00;;;1.45;;
49416;SDS011;35290;39.550;8.786;2023-04-24T11:36:43;5.47;;;1.75;;
49416;SDS011;35290;39.550;8.786;2023-04-24T11:39:08;6.60;;;1.40;;
49416;SDS011;35290;39.550;8.786;2023-04-24T11:41:34;7.28;;;2.83;;
49416;SDS011;35290;39.550;8.786;2023-04-24T11:44:00;2.35;;;1.00;;
49416;SDS011;35290;39.550;8.786;2023-04-24T11:46:29;1.85;;;1.00;;
49416;SDS011;35290;39.550;8.786;2023-04-24T11:48:55;6.05;;;0.80;;
49416;SDS011;35290;39.550;8.786;2023-04-24T11:51:23;4.78;;;1.38;;
49416;SDS011;35290;39.550;8.786;2023-04-24T11:53:53;4.03;;;1.08;;
49416;SDS011;35290;39.550;8.786;2023-04-24T11:56:19;4.13;;;1.08;;
49416;SDS011;35290;39.550;8.786;2023-04-24T11:58:47;5.20;;;1.17;;
49416;SDS011;35290;39.550;8.786;2023-04-24T12:01:13;5.88;;;1.30;;
49416;SDS011;35290;39.550;8.786;2023-04-24T12:03:38;5.93;;;1.50;;
49416;SDS011;35290;39.550;8.786;2023-04-24T12:06:04;6.80;;;2.22;;
49416;SDS011;35290;39.550;8.786;2023-04-24T12:08:31;5.40;;;1.90;;
49416;SDS011;35290;39.550;8.786;2023-04-24T12:10:57;6.65;;;2.58;;
49416;SDS011;35290;39.550;8.786;2023-04-24T12:13:25;3.97;;;1.58;;
49416;SDS011;35290;39.550;8.786;2023-04-24T12:16:10;3.67;;;1.20;;
49416;SDS011;35290;39.550;8.786;2023-04-24T12:18:45;3.55;;;1.20;;
49416;SDS011;35290;39.550;8.786;2023-04-24T12:21:23;5.20;;;1.42;;
49416;SDS011;35290;39.550;8.786;2023-04-24T12:23:54;4.97;;;1.70;;
49416;SDS011;35290;39.550;8.786;2023-04-24T12:26:19;7.80;;;1.48;;
49416;SDS011;35290;39.550;8.786;2023-04-24T12:28:49;7.13;;;2.15;;
49416;SDS011;35290;39.550;8.786;2023-04-24T12:31:20;5.20;;;2.45;;
49416;SDS011;35290;39.550;8.786;2023-04-24T12:33:46;6.30;;;2.47;;
49416;SDS011;35290;39.550;8.786;2023-04-24T12:36:32;7.32;;;2.85;;
49416;SDS011;35290;39.550;8.786;2023-04-24T12:39:02;4.07;;;1.50;;
49416;SDS011;35290;39.550;8.786;2023-04-24T12:41:30;3.35;;;1.40;;
49416;SDS011;35290;39.550;8.786;2023-04-24T12:43:58;5.50;;;1.75;;
49416;SDS011;35290;39.550;8.786;2023-04-24T12:49:01;4.65;;;1.15;;
49416;SDS011;35290;39.550;8.786;2023-04-24T12:51:36;8.98;;;0.95;;
49416;SDS011;35290;39.550;8.786;2023-04-24T12:54:04;3.35;;;1.05;;
49416;SDS011;35290;39.550;8.786;2023-04-24T12:56:30;6.45;;;1.63;;
49416;SDS011;35290;39.550;8.786;2023-04-24T12:58:58;4.53;;;1.15;;
49416;SDS011;35290;39.550;8.786;2023-04-24T13:01:26;6.00;;;1.50;;
49416;SDS011;35290;39.550;8.786;2023-04-24T13:03:59;2.80;;;0.80;;
49416;SDS011;35290;39.550;8.786;2023-04-24T13:06:24;5.35;;;0.90;;
49416;SDS011;35290;39.550;8.786;2023-04-24T13:11:54;2.63;;;1.20;;
49416;SDS011;35290;39.550;8.786;2023-04-24T13:14:21;5.47;;;2.30;;
49416;SDS011;35290;39.550;8.786;2023-04-24T13:16:47;8.23;;;3.28;;
49416;SDS011;35290;39.550;8.786;2023-04-24T13:19:12;5.47;;;2.00;;
49416;SDS011;35290;39.550;8.786;2023-04-24T13:21:40;7.38;;;1.88;;
49416;SDS011;35290;39.550;8.786;2023-04-24T13:24:16;5.18;;;2.40;;
49416;SDS011;35290;39.550;8.786;2023-04-24T13:26:51;3.63;;;1.00;;
49416;SDS011;35290;39.550;8.786;2023-04-24T13:29:17;8.18;;;3.42;;
49416;SDS011;35290;39.550;8.786;2023-04-24T13:31:42;3.20;;;1.55;;
49416;SDS011;35290;39.550;8.786;2023-04-24T13:34:07;4.50;;;2.00;;
49416;SDS011;35290;39.550;8.786;2023-04-24T13:36:35;6.22;;;2.05;;
49416;SDS011;35290;39.550;8.786;2023-04-24T13:39:01;5.43;;;2.28;;
49416;SDS011;35290;39.550;8.786;2023-04-24T13:41:26;7.68;;;2.60;;
49416;SDS011;35290;39.550;8.786;2023-04-24T13:43:52;4.47;;;1.17;;
49416;SDS011;35290;39.550;8.786;2023-04-24T13:46:17;5.20;;;0.90;;
49416;SDS011;35290;39.550;8.786;2023-04-24T13:48:42;4.97;;;0.88;;
49416;SDS011;35290;39.550;8.786;2023-04-24T13:59:03;5.28;;;1.35;;
49416;SDS011;35290;39.550;8.786;2023-04-24T14:01:38;5.45;;;1.08;;
49416;SDS011;35290;39.550;8.786;2023-04-24T14:04:13;4.10;;;1.02;;
49416;SDS011;35290;39.550;8.786;2023-04-24T14:06:40;3.53;;;0.88;;
49416;SDS011;35290;39.550;8.786;2023-04-24T14:09:06;3.60;;;0.88;;
49416;SDS011;35290;39.550;8.786;2023-04-24T14:11:34;2.83;;;0.90;;
49416;SDS011;35290;39.550;8.786;2023-04-24T14:13:59;3.65;;;0.75;;
49416;SDS011;35290;39.550;8.786;2023-04-24T14:16:25;4.85;;;1.60;;
49416;SDS011;35290;39.550;8.786;2023-04-24T14:18:51;2.63;;;1.38;;
49416;SDS011;35290;39.550;8.786;2023-04-24T14:21:16;4.18;;;1.80;;
49416;SDS011;35290;39.550;8.786;2023-04-24T14:23:44;4.45;;;1.42;;
49416;SDS011;35290;39.550;8.786;2023-04-24T14:26:10;7.50;;;1.27;;
49416;SDS011;35290;39.550;8.786;2023-04-24T14:28:35;2.67;;;1.05;;
49416;SDS011;35290;39.550;8.786;2023-04-24T14:31:01;5.30;;;1.00;;
49416;SDS011;35290;39.550;8.786;2023-04-24T14:33:26;4.03;;;0.90;;
49416;SDS011;35290;39.550;8.786;2023-04-24T14:35:52;6.85;;;2.78;;
49416;SDS011;35290;39.550;8.786;2023-04-24T14:38:17;5.82;;;1.20;;
49416;SDS011;35290;39.550;8.786;2023-04-24T14:40:42;5.68;;;1.98;;
49416;SDS011;35290;39.550;8.786;2023-04-24T14:43:08;2.85;;;1.00;;
49416;SDS011;35290;39.550;8.786;2023-04-24T14:45:36;3.40;;;1.02;;
49416;SDS011;35290;39.550;8.786;2023-04-24T14:48:02;4.15;;;1.02;;
49416;SDS011;35290;39.550;8.786;2023-04-24T14:50:27;4.35;;;0.90;;
49416;SDS011;35290;39.550;8.786;2023-04-24T14:52:53;8.02;;;1.20;;
49416;SDS011;35290;39.550;8.786;2023-04-24T14:55:19;4.60;;;0.82;;
49416;SDS011;35290;39.550;8.786;2023-04-24T14:57:47;3.60;;;0.60;;
49416;SDS011;35290;39.550;8.786;2023-04-24T15:00:13;4.07;;;0.90;;
49416;SDS011;35290;39.550;8.786;2023-04-24T15:02:38;1.98;;;0.57;;
49416;SDS011;35290;39.550;8.786;2023-04-24T15:05:07;2.97;;;0.70;;
49416;SDS011;35290;39.550;8.786;2023-04-24T15:07:33;2.22;;;0.80;;
49416;SDS011;35290;39.550;8.786;2023-04-24T15:09:58;1.85;;;0.73;;
49416;SDS011;35290;39.550;8.786;2023-04-24T15:12:24;3.50;;;0.90;;
49416;SDS011;35290;39.550;8.786;2023-04-24T15:14:49;2.45;;;0.70;;
49416;SDS011;35290;39.550;8.786;2023-04-24T15:17:15;3.40;;;0.75;;